createdAt,value
2017-06-09T00:00:45.705Z,0
2017-06-09T00:05:43.474Z,0
2017-06-09T00:10:39.055Z,0
2017-06-09T00:15:34.961Z,0
2017-06-09T00:20:30.970Z,0
2017-06-09T00:25:26.544Z,0
2017-06-09T00:30:22.141Z,0
2017-06-09T00:35:19.094Z,0
2017-06-09T00:40:14.762Z,0
2017-06-09T00:45:10.532Z,0
2017-06-09T00:50:07.528Z,0
2017-06-09T00:55:03.173Z,0
2017-06-09T00:59:59.100Z,0
2017-06-09T01:04:54.882Z,0
2017-06-09T01:09:51.100Z,0
2017-06-09T01:14:47.135Z,0
2017-06-09T01:19:42.991Z,0
2017-06-09T01:24:38.877Z,0
2017-06-09T01:29:34.924Z,0
2017-06-09T01:34:30.961Z,0
2017-06-09T01:39:26.905Z,0
2017-06-09T01:44:22.911Z,0
2017-06-09T01:49:18.594Z,0
2017-06-09T01:54:15.056Z,0
2017-06-09T01:59:10.904Z,0
2017-06-09T02:04:08.027Z,0
2017-06-09T02:09:03.543Z,0
2017-06-09T02:13:59.617Z,0
2017-06-09T02:18:55.540Z,0
2017-06-09T02:23:52.418Z,0
2017-06-09T02:28:48.503Z,0
2017-06-09T02:33:45.327Z,0
2017-06-09T02:38:40.918Z,0
2017-06-09T02:43:36.755Z,0
2017-06-09T02:48:32.782Z,0
2017-06-09T02:53:28.652Z,0
2017-06-09T02:58:24.565Z,0
2017-06-09T03:03:21.800Z,0
2017-06-09T03:08:17.642Z,0
2017-06-09T03:13:14.927Z,5
2017-06-09T03:18:11.158Z,5
2017-06-09T03:23:07.555Z,5
2017-06-09T03:28:03.445Z,10
2017-06-09T03:32:59.760Z,10
2017-06-09T03:37:55.687Z,15
2017-06-09T03:42:51.639Z,20
2017-06-09T03:47:47.435Z,30
2017-06-09T03:52:43.435Z,35
2017-06-09T03:57:39.458Z,40
2017-06-09T04:02:36.667Z,50
2017-06-09T04:07:32.317Z,55
2017-06-09T04:12:28.275Z,60
2017-06-09T04:17:25.410Z,70
2017-06-09T04:22:22.403Z,80
2017-06-09T04:27:18.251Z,105
2017-06-09T04:32:15.456Z,180
2017-06-09T04:37:11.946Z,205
2017-06-09T04:42:08.729Z,200
2017-06-09T04:47:06.807Z,150
2017-06-09T04:52:03.160Z,135
2017-06-09T04:56:59.288Z,130
2017-06-09T05:01:55.544Z,110
2017-06-09T05:06:52.326Z,135
2017-06-09T05:11:47.883Z,120
2017-06-09T05:16:43.807Z,150
2017-06-09T05:21:39.997Z,190
2017-06-09T05:26:37.687Z,210
2017-06-09T05:31:34.088Z,195
2017-06-09T05:36:30.267Z,165
2017-06-09T05:41:27.240Z,150
2017-06-09T05:46:23.613Z,155
2017-06-09T05:51:19.085Z,150
2017-06-09T05:56:15.164Z,125
2017-06-09T06:01:10.819Z,100
2017-06-09T06:06:06.441Z,100
2017-06-09T06:11:02.651Z,135
2017-06-09T06:15:58.908Z,165
2017-06-09T06:20:54.708Z,155
2017-06-09T06:25:51.029Z,145
2017-06-09T06:30:47.302Z,170
2017-06-09T06:35:43.350Z,210
2017-06-09T06:40:39.833Z,270
2017-06-09T06:45:37.049Z,230
2017-06-09T06:50:33.010Z,165
2017-06-09T06:55:28.818Z,120
2017-06-09T07:00:24.464Z,105
2017-06-09T07:05:20.283Z,125
2017-06-09T07:10:16.261Z,200
2017-06-09T07:15:12.310Z,255
2017-06-09T07:20:09.023Z,285
2017-06-09T07:25:05.109Z,330
2017-06-09T07:30:02.338Z,295
2017-06-09T07:34:58.249Z,220
2017-06-09T07:39:54.504Z,235
2017-06-09T07:44:50.648Z,210
2017-06-09T07:49:46.793Z,155
2017-06-09T07:54:42.834Z,175
2017-06-09T07:59:38.651Z,225
2017-06-09T08:04:34.804Z,220
2017-06-09T08:09:30.729Z,230
2017-06-09T08:14:26.898Z,300
2017-06-09T08:19:23.931Z,255
2017-06-09T08:24:19.935Z,270
2017-06-09T08:29:15.797Z,245
2017-06-09T08:34:11.739Z,245
2017-06-09T08:39:08.674Z,265
2017-06-09T08:44:04.488Z,310
2017-06-09T08:49:00.741Z,385
2017-06-09T08:53:57.300Z,300
2017-06-09T08:58:53.023Z,255
2017-06-09T09:03:48.895Z,195
2017-06-09T09:08:44.900Z,180
2017-06-09T09:13:41.695Z,250
2017-06-09T09:18:37.442Z,260
2017-06-09T09:23:34.803Z,250
2017-06-09T09:28:30.466Z,165
2017-06-09T09:33:26.613Z,150
2017-06-09T09:38:22.314Z,175
2017-06-09T09:43:19.210Z,170
2017-06-09T09:48:14.871Z,170
2017-06-09T09:53:11.367Z,175
2017-06-09T09:58:07.376Z,160
2017-06-09T10:03:03.162Z,140
2017-06-09T10:08:00.751Z,135
2017-06-09T10:12:57.485Z,125
2017-06-09T10:17:53.339Z,135
2017-06-09T10:22:51.307Z,160
2017-06-09T10:27:46.469Z,120
2017-06-09T10:32:42.053Z,80
2017-06-09T10:37:37.634Z,125
2017-06-09T10:42:34.239Z,95
2017-06-09T10:47:31.801Z,60
2017-06-09T10:52:26.983Z,55
2017-06-09T10:57:22.624Z,45
2017-06-09T11:02:18.247Z,55
2017-06-09T11:07:15.049Z,65
2017-06-09T11:12:11.628Z,100
2017-06-09T11:17:07.026Z,135
2017-06-09T11:22:04.081Z,130
2017-06-09T11:26:59.744Z,105
2017-06-09T11:31:55.599Z,95
2017-06-09T11:36:53.666Z,105
2017-06-09T11:41:48.804Z,125
2017-06-09T11:46:46.670Z,155
2017-06-09T11:51:42.355Z,185
2017-06-09T11:56:38.204Z,245
2017-06-09T12:01:35.406Z,250
2017-06-09T12:06:32.397Z,200
2017-06-09T12:11:28.913Z,165
2017-06-09T12:16:25.063Z,295
2017-06-09T12:21:21.153Z,305
2017-06-09T12:31:26.258Z,450
2017-06-09T12:36:21.555Z,345
2017-06-09T12:41:17.932Z,280
2017-06-09T12:46:14.382Z,415
2017-06-09T12:51:10.092Z,290
2017-06-09T12:56:06.129Z,250
2017-06-09T13:01:02.191Z,180
2017-06-09T13:05:57.947Z,265
2017-06-09T13:10:55.469Z,925
2017-06-09T13:15:53.358Z,1655
2017-06-09T13:20:49.953Z,450
2017-06-09T13:25:45.003Z,270
2017-06-09T13:30:43.023Z,2170
2017-06-09T13:35:40.082Z,1615
2017-06-09T13:40:36.720Z,1930
2017-06-09T13:45:33.832Z,740
2017-06-09T13:50:29.529Z,315
2017-06-09T13:55:25.450Z,1780
2017-06-09T14:00:22.833Z,945
2017-06-09T14:05:19.207Z,275
2017-06-09T14:10:14.305Z,210
2017-06-09T14:15:09.467Z,185
2017-06-09T14:20:04.722Z,305
2017-06-09T14:25:00.793Z,265
2017-06-09T14:29:56.205Z,295
2017-06-09T14:34:51.822Z,265
2017-06-09T14:39:47.812Z,305
2017-06-09T14:44:45.054Z,210
2017-06-09T14:49:41.414Z,240
2017-06-09T14:54:37.807Z,215
2017-06-09T14:59:33.941Z,215
2017-06-09T15:04:29.845Z,170
2017-06-09T15:09:25.654Z,125
2017-06-09T15:14:21.454Z,125
2017-06-09T15:19:17.207Z,125
2017-06-09T15:24:13.055Z,120
2017-06-09T15:29:08.916Z,115
2017-06-09T15:34:05.040Z,150
2017-06-09T15:39:01.034Z,150
2017-06-09T15:43:57.490Z,115
2017-06-09T15:48:53.502Z,120
2017-06-09T15:53:50.760Z,95
2017-06-09T15:58:46.283Z,95
2017-06-09T16:03:42.241Z,100
2017-06-09T16:08:38.757Z,90
2017-06-09T16:13:34.984Z,90
2017-06-09T16:18:30.953Z,90
2017-06-09T16:23:27.810Z,85
2017-06-09T16:28:23.316Z,85
2017-06-09T16:33:19.154Z,85
2017-06-09T16:38:14.956Z,85
2017-06-09T16:43:11.234Z,85
2017-06-09T16:48:07.045Z,80
2017-06-09T16:53:03.072Z,80
2017-06-09T16:57:59.446Z,80
2017-06-09T17:02:55.306Z,80
2017-06-09T17:07:52.084Z,75
2017-06-09T17:12:49.791Z,75
2017-06-09T17:17:45.696Z,75
2017-06-09T17:22:41.447Z,75
2017-06-09T17:27:37.654Z,70
2017-06-09T17:32:34.974Z,70
2017-06-09T17:37:30.803Z,70
2017-06-09T17:42:26.753Z,65
2017-06-09T17:47:22.456Z,65
2017-06-09T17:52:18.418Z,65
2017-06-09T17:57:14.272Z,60
2017-06-09T18:02:10.114Z,60
2017-06-09T18:07:06.929Z,55
2017-06-09T18:12:02.374Z,55
2017-06-09T18:16:58.115Z,50
2017-06-09T18:21:55.161Z,50
2017-06-09T18:26:50.722Z,45
2017-06-09T18:31:48.675Z,45
2017-06-09T18:36:44.382Z,45
2017-06-09T18:41:40.505Z,40
2017-06-09T18:46:36.136Z,40
2017-06-09T18:51:32.385Z,35
2017-06-09T18:56:28.565Z,35
2017-06-09T19:01:25.093Z,30
2017-06-09T19:06:21.603Z,25
2017-06-09T19:11:17.251Z,20
2017-06-09T19:16:12.673Z,20
2017-06-09T19:21:09.130Z,15
2017-06-09T19:26:06.818Z,10
2017-06-09T19:31:02.199Z,10
2017-06-09T19:35:58.608Z,5
2017-06-09T19:40:55.424Z,5
2017-06-09T19:45:51.929Z,5
2017-06-09T19:50:47.609Z,0
2017-06-09T19:55:43.736Z,0
2017-06-09T20:00:39.752Z,0
2017-06-09T20:05:35.219Z,0
2017-06-09T20:10:31.434Z,0
2017-06-09T20:15:27.550Z,0
2017-06-09T20:20:23.266Z,0
2017-06-09T20:25:19.106Z,0
2017-06-09T20:30:15.141Z,0
2017-06-09T20:35:10.938Z,0
2017-06-09T20:40:06.772Z,0
2017-06-09T20:45:02.839Z,0
2017-06-09T20:49:58.849Z,0
2017-06-09T20:54:54.427Z,0
2017-06-09T20:59:50.401Z,0
2017-06-09T21:04:47.115Z,0
2017-06-09T21:09:42.810Z,0
2017-06-09T21:14:38.371Z,0
2017-06-09T21:19:34.439Z,0
2017-06-09T21:24:30.206Z,0
2017-06-09T21:29:26.154Z,0
2017-06-09T21:34:23.025Z,0
2017-06-09T21:39:18.810Z,0
2017-06-09T21:44:14.825Z,0
2017-06-09T21:49:10.429Z,0
2017-06-09T21:54:06.476Z,0
2017-06-09T21:59:02.528Z,0
2017-06-09T22:03:58.177Z,0
2017-06-09T22:08:55.440Z,0
2017-06-09T22:13:50.984Z,0
2017-06-09T22:18:47.958Z,0
2017-06-09T22:23:43.665Z,0
2017-06-09T22:28:39.488Z,0
2017-06-09T22:33:36.098Z,0
2017-06-09T22:38:31.668Z,0
2017-06-09T22:43:27.507Z,0
2017-06-09T22:48:23.340Z,0
2017-06-09T22:53:19.952Z,0
2017-06-09T22:58:15.391Z,0
2017-06-09T23:03:10.957Z,0
2017-06-09T23:08:06.974Z,0
2017-06-09T23:13:02.848Z,0
2017-06-09T23:17:58.579Z,0
2017-06-09T23:22:54.941Z,0
2017-06-09T23:27:50.726Z,0
2017-06-09T23:32:46.737Z,0
2017-06-09T23:37:42.402Z,0
2017-06-09T23:42:38.289Z,0
2017-06-09T23:47:34.346Z,0
2017-06-09T23:52:30.499Z,0
2017-06-09T23:57:26.235Z,0
